createdAt,value
2016-05-12T00:00:26.383Z,19.73
2016-05-12T00:01:26.870Z,19.76
2016-05-12T00:02:26.606Z,19.74
2016-05-12T00:03:26.625Z,19.71
2016-05-12T00:04:26.659Z,19.59
2016-05-12T00:05:26.521Z,19.67
2016-05-12T00:06:26.711Z,19.62
2016-05-12T00:07:26.744Z,19.67
2016-05-12T00:08:26.763Z,19.67
2016-05-12T00:09:26.797Z,19.55
2016-05-12T00:10:26.799Z,19.59
2016-05-12T00:11:26.850Z,19.59
2016-05-12T00:12:26.712Z,19.62
2016-05-12T00:13:26.902Z,19.56
2016-05-12T00:14:26.764Z,19.56
2016-05-12T00:15:26.938Z,19.55
2016-05-12T00:16:26.926Z,19.49
2016-05-12T00:17:26.850Z,19.51
2016-05-12T00:18:27.024Z,19.59
2016-05-12T00:19:26.902Z,19.47
2016-05-12T00:20:27.077Z,19.54
2016-05-12T00:21:27.111Z,19.45
2016-05-12T00:22:27.129Z,19.56
2016-05-12T00:23:26.991Z,19.58
2016-05-12T00:24:27.182Z,19.55
2016-05-12T00:25:27.216Z,19.36
2016-05-12T00:26:27.078Z,19.41
2016-05-12T00:27:27.267Z,19.48
2016-05-12T00:28:27.301Z,19.31
2016-05-12T00:29:27.319Z,19.39
2016-05-12T00:30:27.197Z,19.31
2016-05-12T00:31:27.372Z,19.33
2016-05-12T00:32:27.391Z,19.3
2016-05-12T00:33:27.269Z,19.37
2016-05-12T00:34:27.458Z,19.33
2016-05-12T00:35:27.320Z,19.29
2016-05-12T00:36:27.355Z,19.27
2016-05-12T00:37:27.529Z,19.27
2016-05-12T00:38:27.391Z,19.21
2016-05-12T00:39:27.566Z,19.33
2016-05-12T00:40:27.600Z,19.22
2016-05-12T00:41:27.618Z,19.21
2016-05-12T00:42:27.652Z,19.29
2016-05-12T00:43:27.529Z,19.21
2016-05-12T00:44:27.704Z,19.22
2016-05-12T00:45:27.737Z,19.19
2016-05-12T00:46:28.131Z,19.15
2016-05-12T00:47:27.807Z,19.14
2016-05-12T00:48:27.652Z,19.12
2016-05-12T00:49:27.827Z,19.09
2016-05-12T00:50:27.720Z,19.16
2016-05-12T00:51:27.895Z,19.11
2016-05-12T00:52:27.912Z,19.02
2016-05-12T00:53:27.790Z,19.08
2016-05-12T00:54:27.965Z,19.07
2016-05-12T00:55:27.999Z,18.99
2016-05-12T00:56:28.017Z,18.99
2016-05-12T00:57:28.051Z,18.9
2016-05-12T00:58:27.929Z,18.92
2016-05-12T00:59:28.104Z,19.02
2016-05-12T01:00:28.122Z,18.96
2016-05-12T01:01:28.171Z,18.92
2016-05-12T01:02:28.315Z,18.92
2016-05-12T01:03:28.209Z,18.89
2016-05-12T01:04:28.242Z,18.93
2016-05-12T01:05:28.088Z,18.88
2016-05-12T01:06:28.294Z,18.92
2016-05-12T01:07:28.156Z,18.9
2016-05-12T01:08:28.331Z,18.89
2016-05-12T01:09:28.209Z,18.93
2016-05-12T01:10:28.399Z,18.88
2016-05-12T01:11:28.417Z,18.9
2016-05-12T01:12:28.435Z,18.86
2016-05-12T01:13:28.297Z,18.81
2016-05-12T01:14:28.488Z,18.86
2016-05-12T01:15:28.522Z,18.77
2016-05-12T01:16:28.744Z,18.84
2016-05-12T01:17:28.574Z,18.81
2016-05-12T01:18:28.435Z,18.8
2016-05-12T01:19:28.626Z,18.71
2016-05-12T01:20:28.645Z,18.77
2016-05-12T01:21:28.662Z,18.83
2016-05-12T01:22:28.697Z,18.65
2016-05-12T01:23:28.715Z,18.71
2016-05-12T01:24:28.749Z,18.66
2016-05-12T01:25:28.768Z,18.73
2016-05-12T01:26:28.801Z,18.73
2016-05-12T01:27:28.820Z,18.59
2016-05-12T01:28:28.853Z,18.63
2016-05-12T01:29:28.872Z,18.63
2016-05-12T01:30:28.750Z,18.63
2016-05-12T01:31:28.768Z,18.56
2016-05-12T01:32:28.942Z,18.55
2016-05-12T01:33:28.664Z,18.53
2016-05-12T01:34:29.010Z,18.59
2016-05-12T01:35:29.028Z,18.52
2016-05-12T01:36:28.906Z,18.53
2016-05-12T01:37:29.081Z,18.55
2016-05-12T01:38:29.115Z,18.56
2016-05-12T01:39:29.149Z,18.45
2016-05-12T01:40:29.167Z,18.5
2016-05-12T01:41:29.185Z,18.49
2016-05-12T01:42:29.205Z,18.47
2016-05-12T01:43:29.238Z,18.43
2016-05-12T01:44:29.255Z,18.4
2016-05-12T01:45:29.290Z,18.4
2016-05-12T01:46:29.308Z,18.38
2016-05-12T01:47:29.343Z,18.43
2016-05-12T01:48:29.360Z,18.41
2016-05-12T01:49:29.394Z,18.4
2016-05-12T01:50:29.413Z,18.37
2016-05-12T01:51:29.431Z,18.38
2016-05-12T01:52:29.465Z,18.33
2016-05-12T01:53:29.187Z,18.29
2016-05-12T01:54:29.517Z,18.29
2016-05-12T01:55:29.551Z,18.29
2016-05-12T01:56:29.570Z,18.33
2016-05-12T01:57:29.604Z,18.34
2016-05-12T01:58:29.622Z,18.31
2016-05-12T01:59:29.640Z,18.28
2016-05-12T02:00:29.690Z,18.28
2016-05-12T02:01:30.083Z,18.25
2016-05-12T02:02:29.725Z,18.19
2016-05-12T02:03:29.744Z,18.23
2016-05-12T02:04:29.779Z,18.16
2016-05-12T02:05:29.797Z,18.18
2016-05-12T02:06:29.830Z,18.2
2016-05-12T02:07:29.849Z,18.18
2016-05-12T02:08:29.883Z,18.16
2016-05-12T02:09:29.917Z,18.11
2016-05-12T02:10:29.919Z,18.18
2016-05-12T02:11:29.953Z,18.15
2016-05-12T02:12:29.831Z,18.1
2016-05-12T02:13:30.005Z,18.07
2016-05-12T02:14:30.024Z,18.04
2016-05-12T02:15:30.058Z,18.07
2016-05-12T02:16:29.966Z,18.13
2016-05-12T02:17:30.095Z,18.08
2016-05-12T02:18:29.972Z,18.08
2016-05-12T02:19:30.146Z,18.04
2016-05-12T02:20:30.182Z,18.11
2016-05-12T02:21:30.199Z,18.05
2016-05-12T02:22:30.233Z,17.98
2016-05-12T02:23:30.267Z,18.01
2016-05-12T02:24:30.285Z,18.01
2016-05-12T02:25:30.304Z,18.03
2016-05-12T02:26:30.323Z,18.08
2016-05-12T02:27:30.356Z,18
2016-05-12T02:28:30.390Z,17.97
2016-05-12T02:29:30.408Z,17.95
2016-05-12T02:30:30.286Z,18
2016-05-12T02:31:30.836Z,17.86
2016-05-12T02:32:30.479Z,17.95
2016-05-12T02:33:30.357Z,17.95
2016-05-12T02:34:30.547Z,17.86
2016-05-12T02:35:30.408Z,17.94
2016-05-12T02:36:30.428Z,17.87
2016-05-12T02:37:30.617Z,17.9
2016-05-12T02:38:30.666Z,17.85
2016-05-12T02:39:30.701Z,17.83
2016-05-12T02:40:30.688Z,17.86
2016-05-12T02:41:30.738Z,17.8
2016-05-12T02:42:30.569Z,17.87
2016-05-12T02:43:30.774Z,17.8
2016-05-12T02:44:30.683Z,17.78
2016-05-12T02:45:30.810Z,17.82
2016-05-12T02:46:30.844Z,17.79
2016-05-12T02:47:30.707Z,17.8
2016-05-12T02:48:30.897Z,17.76
2016-05-12T02:49:30.759Z,17.78
2016-05-12T02:50:30.621Z,17.7
2016-05-12T02:51:30.952Z,17.67
2016-05-12T02:52:30.986Z,17.72
2016-05-12T02:53:30.691Z,17.74
2016-05-12T02:54:31.023Z,17.71
2016-05-12T02:55:30.900Z,17.71
2016-05-12T02:56:30.918Z,17.65
2016-05-12T02:57:31.108Z,17.71
2016-05-12T02:58:31.126Z,17.63
2016-05-12T02:59:31.162Z,17.67
2016-05-12T03:00:31.179Z,17.64
2016-05-12T03:01:31.260Z,17.68
2016-05-12T03:02:31.231Z,17.63
2016-05-12T03:03:31.093Z,17.57
2016-05-12T03:04:31.283Z,17.6
2016-05-12T03:05:31.303Z,17.63
2016-05-12T03:06:31.320Z,17.67
2016-05-12T03:07:31.354Z,17.57
2016-05-12T03:08:31.372Z,17.51
2016-05-12T03:09:31.438Z,17.6
2016-05-12T03:10:31.425Z,17.57
2016-05-12T03:11:31.459Z,17.51
2016-05-12T03:12:31.492Z,17.49
2016-05-12T03:13:31.620Z,17.57
2016-05-12T03:14:31.623Z,17.49
2016-05-12T03:15:31.391Z,17.52
2016-05-12T03:16:31.441Z,17.48
2016-05-12T03:17:31.709Z,17.51
2016-05-12T03:18:31.588Z,17.56
2016-05-12T03:19:31.340Z,17.38
2016-05-12T03:20:31.374Z,17.52
2016-05-12T03:21:31.392Z,17.54
2016-05-12T03:22:31.769Z,17.49
2016-05-12T03:23:31.771Z,17.39
2016-05-12T03:24:31.790Z,17.36
2016-05-12T03:25:31.793Z,17.36
2016-05-12T03:26:31.905Z,17.39
2016-05-12T03:27:31.923Z,17.38
2016-05-12T03:28:31.957Z,17.39
2016-05-12T03:29:31.898Z,17.38
2016-05-12T03:30:31.869Z,17.41
2016-05-12T03:31:31.872Z,17.41
2016-05-12T03:32:31.968Z,17.34
2016-05-12T03:33:31.987Z,17.34
2016-05-12T03:34:32.020Z,17.38
2016-05-12T03:35:32.039Z,17.33
2016-05-12T03:36:32.072Z,17.24
2016-05-12T03:37:31.934Z,17.27
2016-05-12T03:38:32.125Z,17.26
2016-05-12T03:39:32.144Z,17.34
2016-05-12T03:40:32.178Z,17.34
2016-05-12T03:41:32.195Z,17.23
2016-05-12T03:42:32.229Z,17.23
2016-05-12T03:43:32.247Z,17.2
2016-05-12T03:44:32.266Z,17.23
2016-05-12T03:45:32.300Z,17.22
2016-05-12T03:46:32.318Z,17.2
2016-05-12T03:47:32.336Z,17.24
2016-05-12T03:48:32.371Z,17.2
2016-05-12T03:49:32.405Z,17.2
2016-05-12T03:50:32.423Z,17.16
2016-05-12T03:51:32.441Z,17.19
2016-05-12T03:52:32.460Z,17.2
2016-05-12T03:53:32.494Z,17.19
2016-05-12T03:54:32.512Z,17.23
2016-05-12T03:55:32.546Z,17.16
2016-05-12T03:56:32.564Z,17.2
2016-05-12T03:57:32.442Z,17.08
2016-05-12T03:58:32.460Z,17.11
2016-05-12T03:59:32.651Z,17.11
2016-05-12T04:00:32.669Z,17.09
2016-05-12T04:01:33.624Z,17.06
2016-05-12T04:02:32.706Z,17.19
2016-05-12T04:03:32.583Z,17.05
2016-05-12T04:04:32.757Z,17.14
2016-05-12T04:05:32.792Z,17.14
2016-05-12T04:06:32.810Z,17.09
2016-05-12T04:07:32.672Z,17.14
2016-05-12T04:08:32.862Z,17.02
2016-05-12T04:09:32.880Z,17.11
2016-05-12T04:10:32.914Z,16.99
2016-05-12T04:11:32.776Z,17.05
2016-05-12T04:12:32.967Z,16.99
2016-05-12T04:13:32.985Z,17.04
2016-05-12T04:14:32.691Z,17.02
2016-05-12T04:15:33.036Z,17.06
2016-05-12T04:16:32.899Z,17.06
2016-05-12T04:17:33.074Z,17.11
2016-05-12T04:18:33.107Z,16.94
2016-05-12T04:19:33.127Z,17.06
2016-05-12T04:20:32.988Z,17.02
2016-05-12T04:21:33.178Z,17.04
2016-05-12T04:22:33.196Z,17.06
2016-05-12T04:23:33.230Z,17.05
2016-05-12T04:24:33.092Z,17.05
2016-05-12T04:25:33.267Z,16.93
2016-05-12T04:26:33.301Z,17.02
2016-05-12T04:27:33.319Z,16.94
2016-05-12T04:28:33.337Z,16.99
2016-05-12T04:29:33.371Z,16.99
2016-05-12T04:30:33.390Z,16.94
2016-05-12T04:31:33.424Z,17.09
2016-05-12T04:32:33.442Z,16.93
2016-05-12T04:33:33.320Z,16.91
2016-05-12T04:34:33.588Z,17.05
2016-05-12T04:35:33.622Z,17.09
2016-05-12T04:36:33.390Z,17.14
2016-05-12T04:37:33.627Z,17.06
2016-05-12T04:38:33.646Z,17.06
2016-05-12T04:39:33.462Z,17.05
2016-05-12T04:40:33.667Z,16.94
2016-05-12T04:41:33.622Z,16.94
2016-05-12T04:42:33.797Z,16.91
2016-05-12T04:43:33.643Z,16.94
2016-05-12T04:44:33.850Z,16.94
2016-05-12T04:45:33.853Z,17.11
2016-05-12T04:46:34.433Z,17.14
2016-05-12T04:47:33.905Z,17.11
2016-05-12T04:48:33.907Z,17.04
2016-05-12T04:49:33.785Z,17.08
2016-05-12T04:50:33.912Z,17.05
2016-05-12T04:51:33.791Z,17.11
2016-05-12T04:52:33.949Z,17.06
2016-05-12T04:53:33.952Z,17.09
2016-05-12T04:54:33.970Z,17.01
2016-05-12T04:55:33.988Z,17.05
2016-05-12T04:56:34.085Z,17.09
2016-05-12T04:57:34.057Z,17.02
2016-05-12T04:58:34.074Z,17.04
2016-05-12T04:59:34.093Z,17.12
2016-05-12T05:00:34.112Z,16.99
2016-05-12T05:01:34.020Z,17.08
2016-05-12T05:02:34.179Z,17.04
2016-05-12T05:03:34.197Z,17.12
2016-05-12T05:04:34.076Z,17.04
2016-05-12T05:05:34.234Z,17.05
2016-05-12T05:06:34.268Z,17.09
2016-05-12T05:07:34.287Z,17.08
2016-05-12T05:08:34.320Z,17.12
2016-05-12T05:09:34.339Z,17.08
2016-05-12T05:10:34.356Z,17.14
2016-05-12T05:11:34.391Z,17.08
2016-05-12T05:12:34.253Z,17.14
2016-05-12T05:13:34.428Z,17.11
2016-05-12T05:14:34.461Z,17.09
2016-05-12T05:15:34.323Z,17.12
2016-05-12T05:16:34.560Z,17.12
2016-05-12T05:17:34.532Z,17.12
2016-05-12T05:18:34.394Z,17.22
2016-05-12T05:19:34.584Z,17.15
2016-05-12T05:20:34.446Z,17.19
2016-05-12T05:21:34.621Z,17.22
2016-05-12T05:22:34.655Z,17.12
2016-05-12T05:23:34.813Z,17.22
2016-05-12T05:24:34.708Z,17.2
2016-05-12T05:25:34.569Z,17.29
2016-05-12T05:26:34.744Z,17.22
2016-05-12T05:27:34.777Z,17.2
2016-05-12T05:28:34.796Z,17.22
2016-05-12T05:29:34.814Z,17.26
2016-05-12T05:30:34.848Z,17.26
2016-05-12T05:31:34.804Z,17.23
2016-05-12T05:32:34.916Z,17.2
2016-05-12T05:33:34.778Z,17.26
2016-05-12T05:34:34.937Z,17.27
2016-05-12T05:35:34.971Z,17.31
2016-05-12T05:36:34.989Z,17.3
2016-05-12T05:37:34.851Z,17.27
2016-05-12T05:38:35.041Z,17.33
2016-05-12T05:39:35.060Z,17.33
2016-05-12T05:40:35.095Z,17.38
2016-05-12T05:41:35.112Z,17.39
2016-05-12T05:42:35.146Z,17.38
2016-05-12T05:43:35.164Z,17.36
2016-05-12T05:44:35.197Z,17.41
2016-05-12T05:45:35.217Z,17.33
2016-05-12T05:46:35.235Z,17.41
2016-05-12T05:47:35.097Z,17.34
2016-05-12T05:48:35.412Z,17.39
2016-05-12T05:49:35.430Z,17.49
2016-05-12T05:50:35.433Z,17.54
2016-05-12T05:51:35.436Z,17.56
2016-05-12T05:52:35.454Z,17.49
2016-05-12T05:53:35.457Z,17.52
2016-05-12T05:54:35.615Z,17.54
2016-05-12T05:55:35.477Z,17.49
2016-05-12T05:56:35.325Z,17.51
2016-05-12T05:57:35.624Z,17.52
2016-05-12T05:58:35.485Z,17.57
2016-05-12T05:59:35.629Z,17.63
2016-05-12T06:00:35.648Z,17.64
2016-05-12T06:01:35.651Z,17.7
2016-05-12T06:02:35.559Z,17.68
2016-05-12T06:03:35.656Z,17.76
2016-05-12T06:04:35.518Z,17.7
2016-05-12T06:05:35.818Z,17.64
2016-05-12T06:06:35.789Z,17.72
2016-05-12T06:07:35.760Z,17.78
2016-05-12T06:08:35.778Z,17.86
2016-05-12T06:09:35.875Z,17.86
2016-05-12T06:10:35.674Z,17.92
2016-05-12T06:11:35.849Z,17.89
2016-05-12T06:12:35.805Z,17.95
2016-05-12T06:13:35.886Z,17.97
2016-05-12T06:14:35.841Z,17.98
2016-05-12T06:15:35.844Z,18.01
2016-05-12T06:16:36.284Z,18.08
2016-05-12T06:17:36.006Z,18.05
2016-05-12T06:18:36.008Z,18.03
2016-05-12T06:19:36.042Z,18.15
2016-05-12T06:20:36.077Z,18.26
2016-05-12T06:21:36.094Z,18.16
2016-05-12T06:22:36.128Z,18.22
2016-05-12T06:23:36.069Z,18.2
2016-05-12T06:24:36.227Z,18.28
2016-05-12T06:25:36.027Z,18.33
2016-05-12T06:26:36.249Z,18.33
2016-05-12T06:27:36.424Z,18.43
2016-05-12T06:28:36.426Z,18.4
2016-05-12T06:29:36.429Z,18.43
2016-05-12T06:30:36.432Z,18.43
2016-05-12T06:31:36.652Z,18.55
2016-05-12T06:32:36.452Z,18.52
2016-05-12T06:33:36.470Z,18.6
2016-05-12T06:34:36.458Z,18.56
2016-05-12T06:35:36.507Z,18.6
2016-05-12T06:36:36.509Z,18.68
2016-05-12T06:37:36.357Z,18.81
2016-05-12T06:38:36.593Z,18.75
2016-05-12T06:39:36.596Z,18.81
2016-05-12T06:40:36.646Z,18.84
2016-05-12T06:41:36.649Z,18.86
2016-05-12T06:42:36.651Z,18.81
2016-05-12T06:43:36.654Z,18.88
2016-05-12T06:44:36.672Z,18.84
2016-05-12T06:45:36.675Z,18.92
2016-05-12T06:46:36.772Z,19.07
2016-05-12T06:47:36.680Z,19.11
2016-05-12T06:48:36.761Z,19.18
2016-05-12T06:49:36.779Z,19.16
2016-05-12T06:50:36.840Z,19.24
2016-05-12T06:51:36.917Z,19.36
2016-05-12T06:52:36.978Z,19.33
2016-05-12T06:53:37.055Z,19.47
2016-05-12T06:54:37.117Z,19.49
2016-05-12T06:55:37.010Z,19.49
2016-05-12T06:56:37.201Z,19.66
2016-05-12T06:57:37.093Z,19.58
2016-05-12T06:58:37.298Z,19.66
2016-05-12T06:59:37.316Z,19.63
2016-05-12T07:00:37.199Z,19.71
2016-05-12T07:01:37.411Z,19.7
2016-05-12T07:02:37.403Z,19.84
2016-05-12T07:03:37.131Z,19.81
2016-05-12T07:04:37.466Z,19.79
2016-05-12T07:05:37.502Z,19.96
2016-05-12T07:06:37.523Z,20.03
2016-05-12T07:07:37.574Z,19.99
2016-05-12T07:08:37.422Z,20.02
2016-05-12T07:09:37.615Z,20.13
2016-05-12T07:10:37.634Z,20.11
2016-05-12T07:11:37.669Z,20.24
2016-05-12T07:12:37.687Z,20.26
2016-05-12T07:13:37.721Z,20.34
2016-05-12T07:14:37.741Z,20.34
2016-05-12T07:15:37.760Z,20.47
2016-05-12T07:16:38.356Z,20.44
2016-05-12T07:17:37.813Z,20.52
2016-05-12T07:18:37.847Z,20.6
2016-05-12T07:19:37.865Z,20.63
2016-05-12T07:20:37.884Z,20.69
2016-05-12T07:21:37.917Z,20.78
2016-05-12T07:22:37.936Z,20.84
2016-05-12T07:23:37.970Z,20.96
2016-05-12T07:24:37.989Z,20.95
2016-05-12T07:25:38.023Z,21.05
2016-05-12T07:26:38.041Z,21.12
2016-05-12T07:27:38.058Z,21.18
2016-05-12T07:28:38.094Z,21.18
2016-05-12T07:29:38.127Z,21.24
2016-05-12T07:30:38.161Z,21.32
2016-05-12T07:31:38.180Z,21.37
2016-05-12T07:32:38.197Z,21.37
2016-05-12T07:33:38.232Z,21.5
2016-05-12T07:34:38.250Z,21.55
2016-05-12T07:35:38.283Z,21.66
2016-05-12T07:36:38.146Z,21.69
2016-05-12T07:37:38.164Z,21.8
2016-05-12T07:38:38.354Z,21.89
2016-05-12T07:39:38.373Z,21.95
2016-05-12T07:40:38.422Z,22
2016-05-12T07:41:38.269Z,22
2016-05-12T07:42:38.474Z,22.02
2016-05-12T07:43:38.165Z,22.15
2016-05-12T07:44:38.511Z,22.18
2016-05-12T07:45:38.390Z,22.28
2016-05-12T07:46:39.048Z,22.36
2016-05-12T07:47:38.441Z,22.39
2016-05-12T07:48:38.725Z,22.43
2016-05-12T07:49:38.743Z,22.5
2016-05-12T07:50:38.778Z,22.48
2016-05-12T07:51:38.764Z,22.54
2016-05-12T07:52:38.643Z,22.63
2016-05-12T07:53:38.848Z,22.6
2016-05-12T07:54:38.851Z,22.66
2016-05-12T07:55:38.853Z,22.76
2016-05-12T07:56:38.856Z,22.88
2016-05-12T07:57:38.718Z,22.85
2016-05-12T07:58:38.720Z,22.94
2016-05-12T07:59:38.989Z,22.98
2016-05-12T08:00:38.991Z,23.13
2016-05-12T08:01:39.463Z,23.23
2016-05-12T08:02:39.044Z,23.31
2016-05-12T08:03:39.047Z,23.24
2016-05-12T08:04:38.924Z,23.34
2016-05-12T08:05:39.068Z,23.43
2016-05-12T08:06:39.117Z,23.51
2016-05-12T08:07:38.824Z,23.54
2016-05-12T08:08:39.154Z,23.63
2016-05-12T08:09:39.015Z,23.68
2016-05-12T08:10:39.207Z,23.78
2016-05-12T08:11:39.225Z,23.73
2016-05-12T08:12:39.102Z,23.78
2016-05-12T08:13:39.215Z,23.81
2016-05-12T08:14:39.388Z,23.84
2016-05-12T08:15:39.548Z,23.87
2016-05-12T08:16:39.629Z,24.02
2016-05-12T08:17:39.303Z,24.14
2016-05-12T08:18:39.541Z,24.16
2016-05-12T08:19:39.387Z,24.24
2016-05-12T08:20:39.545Z,24.3
2016-05-12T08:21:39.690Z,24.28
2016-05-12T08:22:39.692Z,24.43
2016-05-12T08:23:39.709Z,24.45
2016-05-12T08:24:39.556Z,24.45
2016-05-12T08:25:39.028Z,24.51
2016-05-12T08:26:39.733Z,24.5
2016-05-12T08:27:39.736Z,24.58
2016-05-12T08:28:39.739Z,24.7
2016-05-12T08:29:39.819Z,24.77
2016-05-12T08:30:39.760Z,24.84
2016-05-12T08:31:40.122Z,24.86
2016-05-12T08:32:39.812Z,24.92
2016-05-12T08:33:39.847Z,24.98
2016-05-12T08:34:39.865Z,25.11
2016-05-12T08:35:39.727Z,25.14
2016-05-12T08:36:39.777Z,25.22
2016-05-12T08:37:39.950Z,25.26
2016-05-12T08:38:39.969Z,25.4
2016-05-12T08:39:40.003Z,25.5
2016-05-12T08:40:40.021Z,25.44
2016-05-12T08:41:40.055Z,25.51
2016-05-12T08:42:40.088Z,25.55
2016-05-12T08:43:40.107Z,25.59
2016-05-12T08:44:39.985Z,25.68
2016-05-12T08:45:40.019Z,25.66
2016-05-12T08:46:40.349Z,25.77
2016-05-12T08:47:40.227Z,25.78
2016-05-12T08:48:40.246Z,25.85
2016-05-12T08:49:40.279Z,25.96
2016-05-12T08:50:40.314Z,25.95
2016-05-12T08:51:40.348Z,26.05
2016-05-12T08:52:40.381Z,26.07
2016-05-12T08:53:40.400Z,26.07
2016-05-12T08:54:40.434Z,26.25
2016-05-12T08:55:40.311Z,26.09
2016-05-12T08:56:40.487Z,26.23
2016-05-12T08:57:40.504Z,26.28
2016-05-12T08:58:40.413Z,26.41
2016-05-12T08:59:40.417Z,26.47
2016-05-12T09:00:40.450Z,26.48
2016-05-12T09:01:42.858Z,26.62
2016-05-12T09:02:40.659Z,26.68
2016-05-12T09:03:40.692Z,26.73
2016-05-12T09:04:40.711Z,26.75
2016-05-12T09:05:40.775Z,26.78
2016-05-12T09:06:40.622Z,26.81
2016-05-12T09:07:40.813Z,26.88
2016-05-12T09:08:40.674Z,26.88
2016-05-12T09:09:40.708Z,26.99
2016-05-12T09:10:40.899Z,27.07
2016-05-12T09:11:40.761Z,27.07
2016-05-12T09:12:40.951Z,27.05
2016-05-12T09:13:40.985Z,27.17
2016-05-12T09:14:41.003Z,27.18
2016-05-12T09:15:41.038Z,27.29
2016-05-12T09:16:41.087Z,27.27
2016-05-12T09:17:41.105Z,27.37
2016-05-12T09:18:41.124Z,27.4
2016-05-12T09:19:41.001Z,27.48
2016-05-12T09:20:41.191Z,27.54
2016-05-12T09:21:41.241Z,27.54
2016-05-12T09:22:41.243Z,27.65
2016-05-12T09:23:41.121Z,27.64
2016-05-12T09:24:41.155Z,27.68
2016-05-12T09:25:41.345Z,27.78
2016-05-12T09:26:41.207Z,27.83
2016-05-12T09:27:41.397Z,27.85
2016-05-12T09:28:41.431Z,27.98
2016-05-12T09:29:41.465Z,28.02
2016-05-12T09:30:41.500Z,28.04
2016-05-12T09:31:41.861Z,28.08
2016-05-12T09:32:41.552Z,28.2
2016-05-12T09:33:41.430Z,28.33
2016-05-12T09:34:41.447Z,28.35
2016-05-12T09:35:41.481Z,28.37
2016-05-12T09:36:41.656Z,28.49
2016-05-12T09:37:41.691Z,28.57
2016-05-12T09:38:41.739Z,28.67
2016-05-12T09:39:41.774Z,28.76
2016-05-12T09:40:41.792Z,28.75
2016-05-12T09:41:41.826Z,28.79
2016-05-12T09:42:41.704Z,28.85
2016-05-12T09:43:41.721Z,28.91
2016-05-12T09:44:41.771Z,28.97
2016-05-12T09:45:41.946Z,29.02
2016-05-12T09:46:42.557Z,29.16
2016-05-12T09:47:42.014Z,29.16
2016-05-12T09:48:41.876Z,29.22
2016-05-12T09:49:42.066Z,29.29
2016-05-12T09:50:41.944Z,29.34
2016-05-12T09:51:42.134Z,29.38
2016-05-12T09:52:42.168Z,29.45
2016-05-12T09:53:43.576Z,29.57
2016-05-12T09:54:42.079Z,29.59
2016-05-12T09:55:42.254Z,29.68
2016-05-12T09:56:42.288Z,29.75
2016-05-12T09:57:42.322Z,29.72
2016-05-12T09:58:42.215Z,29.72
2016-05-12T09:59:42.217Z,29.79
2016-05-12T10:00:42.423Z,29.82
2016-05-12T10:01:42.317Z,29.82
2016-05-12T10:02:42.460Z,29.91
2016-05-12T10:03:42.511Z,29.97
2016-05-12T10:04:42.389Z,30
2016-05-12T10:05:42.422Z,30.05
2016-05-12T10:06:42.690Z,30.06
2016-05-12T10:07:42.739Z,30.05
2016-05-12T10:08:42.617Z,30.08
2016-05-12T10:09:42.761Z,30.24
2016-05-12T10:10:42.779Z,30.25
2016-05-12T10:11:42.766Z,30.32
2016-05-12T10:12:42.799Z,30.4
2016-05-12T10:13:42.912Z,30.5
2016-05-12T10:14:42.727Z,30.51
2016-05-12T10:15:42.901Z,30.48
2016-05-12T10:16:43.482Z,30.48
2016-05-12T10:17:42.954Z,30.57
2016-05-12T10:18:43.004Z,30.59
2016-05-12T10:19:43.022Z,30.75
2016-05-12T10:20:43.056Z,30.9
2016-05-12T10:21:43.090Z,30.91
2016-05-12T10:22:43.107Z,30.99
2016-05-12T10:23:43.143Z,31
2016-05-12T10:24:43.176Z,31.07
2016-05-12T10:25:43.210Z,31.12
2016-05-12T10:26:43.243Z,31.15
2016-05-12T10:27:43.278Z,31.22
2016-05-12T10:28:43.156Z,31.18
2016-05-12T10:29:43.408Z,31.22
2016-05-12T10:30:43.364Z,31.28
2016-05-12T10:31:43.256Z,31.29
2016-05-12T10:32:43.447Z,31.36
2016-05-12T10:33:44.123Z,31.33
2016-05-12T10:34:43.499Z,31.33
2016-05-12T10:35:43.533Z,31.46
2016-05-12T10:36:43.583Z,31.46
2016-05-12T10:37:43.633Z,31.49
2016-05-12T10:38:43.636Z,31.55
2016-05-12T10:39:43.669Z,31.56
2016-05-12T10:40:43.703Z,31.69
2016-05-12T10:41:43.737Z,31.71
2016-05-12T10:42:43.771Z,31.73
2016-05-12T10:43:43.664Z,31.73
2016-05-12T10:44:43.683Z,31.7
2016-05-12T10:45:43.732Z,31.73
2016-05-12T10:46:44.266Z,31.73
2016-05-12T10:47:43.941Z,31.73
2016-05-12T10:48:43.975Z,31.71
2016-05-12T10:49:43.993Z,31.73
2016-05-12T10:50:44.026Z,31.76
2016-05-12T10:51:44.077Z,31.73
2016-05-12T10:52:43.939Z,31.7
2016-05-12T10:53:43.988Z,31.71
2016-05-12T10:54:44.007Z,31.77
2016-05-12T10:55:44.196Z,31.85
2016-05-12T10:56:44.231Z,31.8
2016-05-12T10:57:43.952Z,31.87
2016-05-12T10:58:44.299Z,31.81
2016-05-12T10:59:44.332Z,31.84
2016-05-12T11:00:44.475Z,31.87
2016-05-12T11:01:44.509Z,31.92
2016-05-12T11:02:44.513Z,31.93
2016-05-12T11:03:44.483Z,31.99
2016-05-12T11:04:44.345Z,32.03
2016-05-12T11:05:44.536Z,32.09
2016-05-12T11:06:45.039Z,32.12
2016-05-12T11:07:44.714Z,32.07
2016-05-12T11:08:44.717Z,32.07
2016-05-12T11:09:44.733Z,32.01
2016-05-12T11:10:44.581Z,32.04
2016-05-12T11:11:44.740Z,32.03
2016-05-12T11:12:44.789Z,32.08
2016-05-12T11:13:44.808Z,32.11
2016-05-12T11:14:44.841Z,32.14
2016-05-12T11:15:44.875Z,32.09
2016-05-12T11:16:44.925Z,32.04
2016-05-12T11:17:44.943Z,32.07
2016-05-12T11:18:44.993Z,32.08
2016-05-12T11:19:45.027Z,32.03
2016-05-12T11:20:45.060Z,31.97
2016-05-12T11:21:45.079Z,32.07
2016-05-12T11:22:44.957Z,32.09
2016-05-12T11:23:45.146Z,32.11
2016-05-12T11:24:45.181Z,32.09
2016-05-12T11:25:45.215Z,32.19
2016-05-12T11:26:45.109Z,32.18
2016-05-12T11:27:45.376Z,32.26
2016-05-12T11:28:45.176Z,32.29
2016-05-12T11:29:45.351Z,32.33
2016-05-12T11:30:45.510Z,32.34
2016-05-12T11:31:46.543Z,32.36
2016-05-12T11:32:45.467Z,32.4
2016-05-12T11:33:45.346Z,32.45
2016-05-12T11:34:45.223Z,32.43
2016-05-12T11:35:45.413Z,32.46
2016-05-12T11:36:45.839Z,32.56
2016-05-12T11:37:45.497Z,32.56
2016-05-12T11:38:45.672Z,32.68
2016-05-12T11:39:45.705Z,32.68
2016-05-12T11:40:45.740Z,32.71
2016-05-12T11:41:45.774Z,32.74
2016-05-12T11:42:45.807Z,32.71
2016-05-12T11:43:45.858Z,32.7
2016-05-12T11:44:45.875Z,32.74
2016-05-12T11:45:45.925Z,32.74
2016-05-12T11:46:45.975Z,32.71
2016-05-12T11:47:45.993Z,32.7
2016-05-12T11:48:46.027Z,32.7
2016-05-12T11:49:46.060Z,32.7
2016-05-12T11:50:46.095Z,32.7
2016-05-12T11:51:46.144Z,32.68
2016-05-12T11:52:45.881Z,32.73
2016-05-12T11:53:46.196Z,32.74
2016-05-12T11:54:46.105Z,32.71
2016-05-12T11:55:46.265Z,32.74
2016-05-12T11:56:46.314Z,32.7
2016-05-12T11:57:46.192Z,32.75
2016-05-12T11:58:46.382Z,32.77
2016-05-12T11:59:46.415Z,32.78
2016-05-12T12:00:46.450Z,32.8
2016-05-12T12:01:46.343Z,33.04
2016-05-12T12:02:46.502Z,33.02
2016-05-12T12:03:46.537Z,33.12
2016-05-12T12:04:46.586Z,33.11
2016-05-12T12:05:46.603Z,33.22
2016-05-12T12:06:46.653Z,33.28
2016-05-12T12:07:46.531Z,33.23
2016-05-12T12:08:46.736Z,33.22
2016-05-12T12:09:46.646Z,33.2
2016-05-12T12:10:46.805Z,33.23
2016-05-12T12:11:46.822Z,33.24
2016-05-12T12:12:46.888Z,33.31
2016-05-12T12:13:46.766Z,33.27
2016-05-12T12:14:46.940Z,33.31
2016-05-12T12:15:46.958Z,33.32
2016-05-12T12:16:47.274Z,33.34
2016-05-12T12:17:46.886Z,33.49
2016-05-12T12:18:46.936Z,33.39
2016-05-12T12:19:47.126Z,33.49
2016-05-12T12:20:47.160Z,33.58
2016-05-12T12:21:47.177Z,33.58
2016-05-12T12:22:47.228Z,33.71
2016-05-12T12:23:47.387Z,33.62
2016-05-12T12:24:47.311Z,33.68
2016-05-12T12:25:47.173Z,33.77
2016-05-12T12:26:47.379Z,33.87
2016-05-12T12:27:47.398Z,33.94
2016-05-12T12:28:47.431Z,33.9
2016-05-12T12:29:47.465Z,33.95
2016-05-12T12:30:47.514Z,33.95
2016-05-12T12:31:47.595Z,33.94
2016-05-12T12:32:47.427Z,33.95
2016-05-12T12:33:47.617Z,33.92
2016-05-12T12:34:47.650Z,33.94
2016-05-12T12:35:47.528Z,33.86
2016-05-12T12:36:47.562Z,33.76
2016-05-12T12:37:47.753Z,33.71
2016-05-12T12:38:47.803Z,33.73
2016-05-12T12:39:47.680Z,33.69
2016-05-12T12:40:47.870Z,33.69
2016-05-12T12:41:47.904Z,33.69
2016-05-12T12:42:47.953Z,33.69
2016-05-12T12:43:47.816Z,33.71
2016-05-12T12:44:48.036Z,33.68
2016-05-12T12:45:47.899Z,33.76
2016-05-12T12:46:48.495Z,33.86
2016-05-12T12:47:48.122Z,33.77
2016-05-12T12:48:48.172Z,33.81
2016-05-12T12:49:48.206Z,33.77
2016-05-12T12:50:48.241Z,33.76
2016-05-12T12:51:48.102Z,33.71
2016-05-12T12:52:48.308Z,33.65
2016-05-12T12:53:48.343Z,33.74
2016-05-12T12:54:48.516Z,33.59
2016-05-12T12:55:48.410Z,33.53